Observation data for Hart on 02/14/2020      Previous  Date  Next       Current Mesonet Observations  Soil Data  Daily Summary Page  Observations in Plain Language
KHRS 140600Z 12012KT M05/M06 A3025 RMK A01 T10471060  RH  091%=      5-min Rain = 0
KHRS 140605Z 13011KT M05/M06 A3025 RMK A01 T10461058  RH  092%=      5-min Rain = 0
KHRS 140610Z 12012KT M05/M06 A3025 RMK A01 T10451057  RH  092%=      5-min Rain = 0
KHRS 140615Z 12011KT M04/M06 A3025 RMK A01 T10441057  RH  092%=      5-min Rain = 0
KHRS 140620Z 12011KT M05/M06 A3025 RMK A01 T10451058  RH  092%=      5-min Rain = 0
KHRS 140625Z 12009KT M05/M06 A3026 RMK A01 T10451058  RH  092%=      5-min Rain = 0
KHRS 140630Z 12010KT M05/M06 A3026 RMK A01 T10461058  RH  092%=      5-min Rain = 0
KHRS 140635Z 12008KT M05/M06 A3026 RMK A01 T10461058  RH  093%=      5-min Rain = 0
KHRS 140640Z 13008KT M05/M06 A3026 RMK A01 T10471058  RH  093%=      5-min Rain = 0
KHRS 140645Z 12009KT M05/M06 A3026 RMK A01 T10461058  RH  093%=      5-min Rain = 0
KHRS 140650Z 12009KT M05/M06 A3026 RMK A01 T10461057  RH  093%=      5-min Rain = 0
KHRS 140655Z 13011KT M05/M06 A3026 RMK A01 T10461057  RH  093%=      5-min Rain = 0
KHRS 140700Z 13013KT M05/M06 A3026 RMK A01 T10451059  RH  092%=      5-min Rain = 0
KHRS 140705Z 13014KT M05/M06 A3026 RMK A01 T10451059  RH  091%=      5-min Rain = 0
KHRS 140710Z 13015KT M05/M06 A3026 RMK A01 T10451060  RH  090%=      5-min Rain = 0
KHRS 140715Z 13013KT M05/M06 A3026 RMK A01 T10451061  RH  090%=      5-min Rain = 0
KHRS 140720Z 13013KT M05/M06 A3027 RMK A01 T10461061  RH  090%=      5-min Rain = 0
KHRS 140725Z 13013KT M05/M06 A3027 RMK A01 T10461062  RH  090%=      5-min Rain = 0
KHRS 140730Z 13012KT M05/M06 A3027 RMK A01 T10471062  RH  090%=      5-min Rain = 0
KHRS 140735Z 12012KT M05/M06 A3027 RMK A01 T10471062  RH  090%=      5-min Rain = 0
KHRS 140740Z 12011KT M05/M06 A3027 RMK A01 T10471062  RH  091%=      5-min Rain = 0
KHRS 140745Z 13013KT M05/M06 A3027 RMK A01 T10481062  RH  091%=      5-min Rain = 0
KHRS 140750Z 12012KT M05/M06 A3027 RMK A01 T10481062  RH  091%=      5-min Rain = 0
KHRS 140755Z 12010KT M05/M06 A3027 RMK A01 T10481061  RH  091%=      5-min Rain = 0
KHRS 140800Z 12011KT M05/M06 A3027 RMK A01 T10491062  RH  091%=      5-min Rain = 0
KHRS 140805Z 13009KT M05/M06 A3027 RMK A01 T10491062  RH  092%=      5-min Rain = 0
KHRS 140810Z 13009KT M05/M06 A3027 RMK A01 T10481060  RH  092%=      5-min Rain = 0
KHRS 140815Z 12009KT M05/M06 A3028 RMK A01 T10481060  RH  092%=      5-min Rain = 0
KHRS 140820Z 12009KT M05/M06 A3028 RMK A01 T10481061  RH  092%=      5-min Rain = 0
KHRS 140825Z 14008KT M05/M06 A3028 RMK A01 T10491061  RH  092%=      5-min Rain = 0
KHRS 140830Z 13008KT M05/M06 A3028 RMK A01 T10491061  RH  092%=      5-min Rain = 0
KHRS 140835Z 12009KT M05/M06 A3028 RMK A01 T10491060  RH  092%=      5-min Rain = 0
KHRS 140840Z 12010KT M05/M06 A3028 RMK A01 T10491062  RH  092%=      5-min Rain = 0
KHRS 140845Z 14007KT M05/M06 A3027 RMK A01 T10501062  RH  092%=      5-min Rain = 0
KHRS 140850Z 13009KT M05/M06 A3027 RMK A01 T10501061  RH  092%=      5-min Rain = 0
KHRS 140855Z 12009KT M05/M06 A3027 RMK A01 T10501062  RH  092%=      5-min Rain = 0
KHRS 140900Z 13008KT M05/M06 A3027 RMK A01 T10501062  RH  093%=      5-min Rain = 0
KHRS 140905Z 13008KT M05/M06 A3027 RMK A01 T10511062  RH  093%=      5-min Rain = 0
KHRS 140910Z 12008KT M05/M06 A3027 RMK A01 T10511062  RH  093%=      5-min Rain = 0
KHRS 140915Z 13009KT M05/M06 A3027 RMK A01 T10511062  RH  093%=      5-min Rain = 0
KHRS 140920Z 14009KT M05/M06 A3027 RMK A01 T10511062  RH  093%=      5-min Rain = 0
KHRS 140925Z 14008KT M05/M06 A3027 RMK A01 T10501062  RH  093%=      5-min Rain = 0
KHRS 140930Z 13009KT M05/M06 A3027 RMK A01 T10511062  RH  093%=      5-min Rain = 0
KHRS 140935Z 14009KT M05/M06 A3026 RMK A01 T10511062  RH  093%=      5-min Rain = 0
KHRS 140940Z 14009KT M05/M06 A3026 RMK A01 T10511062  RH  093%=      5-min Rain = 0
KHRS 140945Z 14007KT M05/M06 A3026 RMK A01 T10511062  RH  093%=      5-min Rain = 0
KHRS 140950Z 15007KT M05/M06 A3026 RMK A01 T10511061  RH  093%=      5-min Rain = 0
KHRS 140955Z 14008KT M05/M06 A3026 RMK A01 T10501060  RH  094%=      5-min Rain = 0
KHRS 141000Z 13008KT M05/M06 A3026 RMK A01 T10501061  RH  093%=      5-min Rain = 0
KHRS 141005Z 14009KT M05/M06 A3026 RMK A01 T10511062  RH  093%=      5-min Rain = 0
KHRS 141010Z 14008KT M05/M06 A3026 RMK A01 T10511061  RH  093%=      5-min Rain = 0
KHRS 141015Z 13008KT M05/M06 A3026 RMK A01 T10511061  RH  093%=      5-min Rain = 0
KHRS 141020Z 14009KT M05/M06 A3026 RMK A01 T10511062  RH  093%=      5-min Rain = 0
KHRS 141025Z 14009KT M05/M06 A3026 RMK A01 T10511062  RH  093%=      5-min Rain = 0
KHRS 141030Z 14008KT M05/M06 A3026 RMK A01 T10511062  RH  093%=      5-min Rain = 0
KHRS 141035Z 14010KT M05/M06 A3026 RMK A01 T10511062  RH  093%=      5-min Rain = 0
KHRS 141040Z 14009KT M05/M06 A3026 RMK A01 T10511062  RH  093%=      5-min Rain = 0
KHRS 141045Z 15008KT M05/M06 A3026 RMK A01 T10511061  RH  093%=      5-min Rain = 0
KHRS 141050Z 15008KT M05/M06 A3026 RMK A01 T10511061  RH  093%=      5-min Rain = 0
KHRS 141055Z 15008KT M05/M06 A3026 RMK A01 T10501061  RH  093%=      5-min Rain = 0
KHRS 141100Z 15008KT M05/M06 A3026 RMK A01 T10501061  RH  093%=      5-min Rain = 0
KHRS 141105Z 15008KT M05/M06 A3026 RMK A01 T10501060  RH  094%=      5-min Rain = 0
KHRS 141110Z 15010KT M05/M06 A3026 RMK A01 T10501060  RH  094%=      5-min Rain = 0
KHRS 141115Z 16011KT M05/M06 A3025 RMK A01 T10501060  RH  093%=      5-min Rain = 0
KHRS 141120Z 15009G14KT M05/M06 A3025 RMK A01 T10491060  RH  093%=      5-min Rain = 0
KHRS 141125Z 16011KT M05/M06 A3025 RMK A01 T10491060  RH  093%=      5-min Rain = 0
KHRS 141130Z 16010G16KT M05/M06 A3025 RMK A01 T10491061  RH  092%=      5-min Rain = 0
KHRS 141135Z 16012G17KT M05/M06 A3026 RMK A01 T10491062  RH  092%=      5-min Rain = 0
KHRS 141140Z 16012G17KT M05/M06 A3026 RMK A01 T10491063  RH  091%=      5-min Rain = 0
KHRS 141145Z 16013KT M05/M07 A3026 RMK A01 T10501065  RH  090%=      5-min Rain = 0
KHRS 141150Z 16012G17KT M05/M07 A3026 RMK A01 T10501066  RH  090%=      5-min Rain = 0
KHRS 141155Z 16011G16KT M05/M07 A3026 RMK A01 T10501066  RH  090%=      5-min Rain = 0
KHRS 141200Z 16009KT M05/M07 A3026 RMK A01 T10491065  RH  090%=      5-min Rain = 0
KHRS 141205Z 16011G17KT M05/M07 A3026 RMK A01 T10491065  RH  090%=      5-min Rain = 0
KHRS 141210Z 16012KT M05/M07 A3026 RMK A01 T10501065  RH  090%=      5-min Rain = 0
KHRS 141215Z 16012KT M05/M07 A3026 RMK A01 T10501065  RH  090%=      5-min Rain = 0
KHRS 141220Z 16011KT M05/M06 A3026 RMK A01 T10501064  RH  091%=      5-min Rain = 0
KHRS 141225Z 16011G16KT M05/M06 A3026 RMK A01 T10501063  RH  092%=      5-min Rain = 0
KHRS 141230Z 16010KT M05/M06 A3026 RMK A01 T10511063  RH  092%=      5-min Rain = 0
KHRS 141235Z 15010KT M05/M06 A3026 RMK A01 T10511062  RH  093%=      5-min Rain = 0
KHRS 141240Z 15010KT M05/M06 A3026 RMK A01 T10511062  RH  094%=      5-min Rain = 0
KHRS 141245Z 16011KT M05/M06 A3026 RMK A01 T10521062  RH  094%=      5-min Rain = 0
KHRS 141250Z 16010KT M05/M06 A3026 RMK A01 T10521061  RH  095%=      5-min Rain = 0
KHRS 141255Z 16010G16KT M05/M06 A3026 RMK A01 T10511060  RH  095%=      5-min Rain = 0
KHRS 141300Z 16009KT M05/M06 A3026 RMK A01 T10511060  RH  095%=      5-min Rain = 0
KHRS 141305Z 16010KT M05/M06 A3026 RMK A01 T10511060  RH  094%=      5-min Rain = 0
KHRS 141310Z 16009KT M05/M06 A3026 RMK A01 T10511059  RH  095%=      5-min Rain = 0
KHRS 141315Z 17009KT M05/M06 A3026 RMK A01 T10501059  RH  095%=      5-min Rain = 0
KHRS 141320Z 17008KT M05/M06 A3026 RMK A01 T10501058  RH  095%=      5-min Rain = 0
KHRS 141325Z 17009KT M05/M06 A3026 RMK A01 T10501058  RH  095%=      5-min Rain = 0
KHRS 141330Z 16009KT M05/M06 A3026 RMK A01 T10491056  RH  096%=      5-min Rain = 0
KHRS 141335Z 16010KT M05/M06 A3026 RMK A01 T10491055  RH  096%=      5-min Rain = 0
KHRS 141340Z 16009G14KT M05/M05 A3026 RMK A01 T10481054  RH  097%=      5-min Rain = 0
KHRS 141345Z 16010KT M05/M05 A3026 RMK A01 T10481053  RH  097%=      5-min Rain = 0
KHRS 141350Z 16010KT M05/M05 A3027 RMK A01 T10481053  RH  097%=      5-min Rain = 0
KHRS 141355Z 16009KT M05/M05 A3027 RMK A01 T10491054  RH  098%=      5-min Rain = 0
KHRS 141400Z 16008KT M05/M05 A3027 RMK A01 T10491053  RH  098%=      5-min Rain = 0
KHRS 141405Z 16009KT M05/M05 A3027 RMK A01 T10491053  RH  098%=      5-min Rain = 0
KHRS 141410Z 16010KT M05/M05 A3027 RMK A01 T10491052  RH  099%=      5-min Rain = 0
KHRS 141415Z 16009KT M05/M05 A3027 RMK A01 T10481051  RH  099%=      5-min Rain = 0
KHRS 141420Z 16008G13KT M05/M05 A3027 RMK A01 T10471049  RH  099%=      5-min Rain = 0
KHRS 141425Z 16008KT M05/M05 A3027 RMK A01 T10461048  RH  100%=      5-min Rain = 0
KHRS 141430Z 17007KT M04/M05 A3027 RMK A01 T10441046  RH  100%=      5-min Rain = 0
KHRS 141435Z 16008KT M04/M05 A3027 RMK A01 T10431045  RH  100%=      5-min Rain = 0
KHRS 141440Z 17008KT M04/M04 A3027 RMK A01 T10421044  RH  100%=      5-min Rain = 0
KHRS 141445Z 16008KT M04/M04 A3027 RMK A01 T10421044  RH  100%=      5-min Rain = 0
KHRS 141450Z 16009KT M04/M04 A3027 RMK A01 T10431044  RH  100%=      5-min Rain = 0
KHRS 141455Z 17006G11KT M04/M04 A3027 RMK A01 T10421043  RH  100%=      5-min Rain = 0
KHRS 141500Z 17008G13KT M04/M04 A3027 RMK A01 T10411043  RH  100%=      5-min Rain = 0
KHRS 141505Z 18009KT M04/M04 A3027 RMK A01 T10411042  RH  100%=      5-min Rain = 0
KHRS 141510Z 18010KT M04/M04 A3027 RMK A01 T10401042  RH  100%=      5-min Rain = 0
KHRS 141515Z 17009KT M04/M04 A3027 RMK A01 T10391041  RH  100%=      5-min Rain = 0
KHRS 141520Z 17008G13KT M04/M04 A3028 RMK A01 T10391040  RH  100%=      5-min Rain = 0
KHRS 141525Z 17009G14KT M04/M04 A3028 RMK A01 T10391040  RH  100%=      5-min Rain = 0
KHRS 141530Z 18008KT M04/M04 A3028 RMK A01 T10381040  RH  100%=      5-min Rain = 0
KHRS 141535Z 18007KT M04/M04 A3028 RMK A01 T10371039  RH  100%=      5-min Rain = 0
KHRS 141540Z 18009G14KT M04/M04 A3028 RMK A01 T10361038  RH  100%=      5-min Rain = 0
KHRS 141545Z 17009G14KT M04/M04 A3028 RMK A01 T10361038  RH  100%=      5-min Rain = 0
KHRS 141550Z 17008G13KT M04/M04 A3028 RMK A01 T10361037  RH  100%=      5-min Rain = 0
KHRS 141555Z 17008KT M04/M04 A3027 RMK A01 T10351036  RH  100%=      5-min Rain = 0
KHRS 141600Z 18011KT M04/M04 A3027 RMK A01 T10351037  RH  100%=      5-min Rain = 0
KHRS 141605Z 17009KT M04/M04 A3027 RMK A01 T10361037  RH  100%=      5-min Rain = 0
KHRS 141610Z 18008KT M04/M04 A3027 RMK A01 T10351036  RH  100%=      5-min Rain = 0
KHRS 141615Z 18009KT M03/M04 A3027 RMK A01 T10341035  RH  100%=      5-min Rain = 0
KHRS 141620Z 18009KT M03/M04 A3027 RMK A01 T10341035  RH  100%=      5-min Rain = 0
KHRS 141625Z 18007KT M03/M03 A3027 RMK A01 T10321034  RH  100%=      5-min Rain = 0
KHRS 141630Z 18007KT M03/M03 A3027 RMK A01 T10321033  RH  100%=      5-min Rain = 0
KHRS 141635Z 17008KT M03/M03 A3026 RMK A01 T10311032  RH  100%=      5-min Rain = 0
KHRS 141640Z 18007KT M03/M03 A3026 RMK A01 T10301031  RH  100%=      5-min Rain = 0
KHRS 141645Z 17007KT M03/M03 A3026 RMK A01 T10281030  RH  100%=      5-min Rain = 0
KHRS 141650Z 17006KT M03/M03 A3026 RMK A01 T10291030  RH  100%=      5-min Rain = 0
KHRS 141655Z 18007KT M03/M03 A3026 RMK A01 T10271029  RH  100%=      5-min Rain = 0
KHRS 141700Z 18009KT M03/M03 A3026 RMK A01 T10261028  RH  100%=      5-min Rain = 0
KHRS 141705Z 18008KT M03/M03 A3026 RMK A01 T10251026  RH  100%=      5-min Rain = 0
KHRS 141710Z 18009KT M02/M02 A3026 RMK A01 T10231024  RH  100%=      5-min Rain = 0
KHRS 141715Z 18010KT M02/M02 A3026 RMK A01 T10221024  RH  100%=      5-min Rain = 0
KHRS 141720Z 18010KT M02/M02 A3026 RMK A01 T10221023  RH  100%=      5-min Rain = 0
KHRS 141725Z 19010KT M02/M02 A3026 RMK A01 T10211023  RH  100%=      5-min Rain = 0
KHRS 141730Z 18009KT M02/M02 A3026 RMK A01 T10201022  RH  100%=      5-min Rain = 0
KHRS 141735Z 19010KT M02/M02 A3025 RMK A01 T10201021  RH  100%=      5-min Rain = 0
KHRS 141740Z 19011KT M02/M02 A3025 RMK A01 T10191021  RH  100%=      5-min Rain = 0
KHRS 141745Z 19010KT M02/M02 A3025 RMK A01 T10181020  RH  100%=      5-min Rain = 0
KHRS 141750Z 19011KT M02/M02 A3024 RMK A01 T10181019  RH  100%=      5-min Rain = 0
KHRS 141755Z 19013KT M02/M02 A3024 RMK A01 T10181019  RH  100%=      5-min Rain = 0
KHRS 141800Z 19011KT M02/M02 A3024 RMK A01 T10171018  RH  100%=      5-min Rain = 0
KHRS 141805Z 19012KT M02/M02 A3024 RMK A01 T10161018  RH  100%=      5-min Rain = 0
KHRS 141810Z 19010KT M02/M02 A3023 RMK A01 T10151017  RH  100%=      5-min Rain = 0
KHRS 141815Z 19011KT M02/M02 A3023 RMK A01 T10161017  RH  100%=      5-min Rain = 0
KHRS 141820Z 19011KT M02/M02 A3023 RMK A01 T10161017  RH  100%=      5-min Rain = 0
KHRS 141825Z 19012KT M01/M02 A3023 RMK A01 T10141015  RH  100%=      5-min Rain = 0
KHRS 141830Z 19011KT M01/M02 A3023 RMK A01 T10141016  RH  100%=      5-min Rain = 0
KHRS 141835Z 19011KT M01/M02 A3022 RMK A01 T10131015  RH  100%=      5-min Rain = 0
KHRS 141840Z 19012KT M01/M01 A3022 RMK A01 T10121013  RH  100%=      5-min Rain = 0
KHRS 141845Z 20012G17KT M01/M01 A3022 RMK A01 T10111012  RH  100%=      5-min Rain = 0
KHRS 141850Z 19012KT M01/M01 A3022 RMK A01 T10111012  RH  100%=      5-min Rain = 0
KHRS 141855Z 19012G17KT M01/M01 A3021 RMK A01 T10101012  RH  100%=      5-min Rain = 0
KHRS 141900Z 19013G18KT M01/M01 A3021 RMK A01 T10091010  RH  100%=      5-min Rain = 0
KHRS 141905Z 19011KT M01/M01 A3021 RMK A01 T10081010  RH  100%=      5-min Rain = 0
KHRS 141910Z 20011G16KT M01/M01 A302 RMK A01 T10071009  RH  100%=      5-min Rain = 0
KHRS 141915Z 19013KT M01/M01 A302 RMK A01 T10061008  RH  100%=      5-min Rain = 0
KHRS 141920Z 19011G16KT M01/M01 A302 RMK A01 T10061008  RH  100%=      5-min Rain = 0
KHRS 141925Z 20013KT M00/M01 A3019 RMK A01 T10041006  RH  100%=      5-min Rain = 0
KHRS 141930Z 20014KT M00/M00 A3019 RMK A01 T10021004  RH  100%=      5-min Rain = 0
KHRS 141935Z 20015KT M00/M00 A3019 RMK A01 T10021004  RH  100%=      5-min Rain = 0
KHRS 141940Z 20014KT M00/M00 A3018 RMK A01 T10021003  RH  100%=      5-min Rain = 0
KHRS 141945Z 20014KT 00/M00 A3018 RMK A01 T00011001  RH  100%=      5-min Rain = 0
KHRS 141950Z 20016KT 00/M00 A3018 RMK A01 T00011001  RH  100%=      5-min Rain = 0
KHRS 141955Z 20016KT 00/M00 A3018 RMK A01 T00021002  RH  099%=      5-min Rain = 0
KHRS 142000Z 20016KT 00/M00 A3017 RMK A01 T00021002  RH  098%=      5-min Rain = 0
KHRS 142005Z 20015G20KT 00/M00 A3017 RMK A01 T00041001  RH  098%=      5-min Rain = 0
KHRS 142010Z 20016KT 00/M00 A3017 RMK A01 T00041002  RH  097%=      5-min Rain = 0
KHRS 142015Z 20014KT 00/M00 A3017 RMK A01 T00041002  RH  097%=      5-min Rain = 0
KHRS 142020Z 19015KT 01/M00 A3016 RMK A01 T00051002  RH  096%=      5-min Rain = 0
KHRS 142025Z 19014KT 01/M00 A3016 RMK A01 T00061001  RH  096%=      5-min Rain = 0
KHRS 142030Z 19014G19KT 01/M00 A3016 RMK A01 T00071001  RH  096%=      5-min Rain = 0
KHRS 142035Z 20015KT 01/00 A3015 RMK A01 T000700-0  RH  096%=      5-min Rain = 0
KHRS 142040Z 20013KT 01/00 A3015 RMK A01 T00090001  RH  095%=      5-min Rain = 0
KHRS 142045Z 20013KT 01/00 A3015 RMK A01 T00100001  RH  094%=      5-min Rain = 0
KHRS 142050Z 19013KT 01/00 A3015 RMK A01 T00110001  RH  094%=      5-min Rain = 0
KHRS 142055Z 19012G17KT 01/00 A3015 RMK A01 T00110001  RH  094%=      5-min Rain = 0
KHRS 142100Z 18011G16KT 01/00 A3015 RMK A01 T001100-0  RH  094%=      5-min Rain = 0
KHRS 142105Z 18012KT 01/00 A3014 RMK A01 T001000-0  RH  094%=      5-min Rain = 0
KHRS 142110Z 19012G17KT 01/00 A3014 RMK A01 T00110000  RH  094%=      5-min Rain = 0
KHRS 142115Z 19012G17KT 01/00 A3014 RMK A01 T00110000  RH  094%=      5-min Rain = 0
KHRS 142120Z 19011KT 01/00 A3014 RMK A01 T00120002  RH  094%=      5-min Rain = 0
KHRS 142125Z 19012KT 01/00 A3013 RMK A01 T00130002  RH  094%=      5-min Rain = 0
KHRS 142130Z 19014G19KT 01/00 A3013 RMK A01 T00130002  RH  093%=      5-min Rain = 0
KHRS 142135Z 19014G20KT 01/00 A3013 RMK A01 T00140002  RH  093%=      5-min Rain = 0
KHRS 142140Z 19015KT 01/00 A3013 RMK A01 T00140002  RH  093%=      5-min Rain = 0
KHRS 142145Z 19014KT 01/00 A3013 RMK A01 T00140002  RH  093%=      5-min Rain = 0
KHRS 142150Z 19014G21KT 01/00 A3012 RMK A01 T00130002  RH  093%=      5-min Rain = 0
KHRS 142155Z 19015G21KT 01/00 A3012 RMK A01 T00130002  RH  093%=      5-min Rain = 0
KHRS 142200Z 19016KT 01/00 A3012 RMK A01 T00140003  RH  093%=      5-min Rain = 0
KHRS 142205Z 19014G20KT 02/00 A3012 RMK A01 T00150004  RH  093%=      5-min Rain = 0
KHRS 142210Z 18014G19KT 01/00 A3012 RMK A01 T00140003  RH  093%=      5-min Rain = 0
KHRS 142215Z 19017G23KT 01/00 A3012 RMK A01 T00130002  RH  093%=      5-min Rain = 0
KHRS 142220Z 19018G23KT 01/00 A3012 RMK A01 T00140002  RH  093%=      5-min Rain = 0
KHRS 142225Z 20017G22KT 01/00 A3012 RMK A01 T00130002  RH  093%=      5-min Rain = 0
KHRS 142230Z 18014G19KT 01/00 A3012 RMK A01 T00140003  RH  094%=      5-min Rain = 0
KHRS 142235Z 18015KT 01/00 A3012 RMK A01 T00130002  RH  094%=      5-min Rain = 0
KHRS 142240Z 19016KT 01/00 A3012 RMK A01 T00120002  RH  094%=      5-min Rain = 0
KHRS 142245Z 19015G20KT 01/00 A3011 RMK A01 T00120002  RH  094%=      5-min Rain = 0
KHRS 142250Z 18013G18KT 01/00 A3012 RMK A01 T00120002  RH  094%=      5-min Rain = 0
KHRS 142255Z 18013G18KT 01/00 A3011 RMK A01 T00120002  RH  094%=      5-min Rain = 0
KHRS 142300Z 19015KT 01/00 A3011 RMK A01 T00120002  RH  094%=      5-min Rain = 0
KHRS 142305Z 19015G20KT 01/00 A3011 RMK A01 T00110002  RH  095%=      5-min Rain = 0
KHRS 142310Z 19014KT 01/00 A3011 RMK A01 T00120002  RH  095%=      5-min Rain = 0
KHRS 142315Z 18013G19KT 01/00 A3011 RMK A01 T00110001  RH  095%=      5-min Rain = 0
KHRS 142320Z 19015G20KT 01/00 A3011 RMK A01 T00100001  RH  095%=      5-min Rain = 0
KHRS 142325Z 19016KT 01/00 A3011 RMK A01 T00090001  RH  095%=      5-min Rain = 0
KHRS 142330Z 19015G21KT 01/00 A3011 RMK A01 T00090001  RH  095%=      5-min Rain = 0
KHRS 142335Z 18013KT 01/00 A3011 RMK A01 T00090001  RH  095%=      5-min Rain = 0
KHRS 142340Z 18012G17KT 01/00 A3011 RMK A01 T00090001  RH  095%=      5-min Rain = 0
KHRS 142345Z 18013KT 01/00 A3011 RMK A01 T00080001  RH  096%=      5-min Rain = 0
KHRS 142350Z 18014G19KT 01/00 A3011 RMK A01 T00080000  RH  096%=      5-min Rain = 0
KHRS 142355Z 18013G18KT 01/00 A3011 RMK A01 T00080001  RH  096%=      5-min Rain = 0
KHRS 150000Z 19014G19KT 01/00 A3011 RMK A01 T00080001  RH  096%=      5-min Rain = 0
KHRS 150005Z 19012G17KT 01/00 A3011 RMK A01 T00090001  RH  096%=      5-min Rain = 0
KHRS 150010Z 19013G18KT 01/00 A3011 RMK A01 T00090001  RH  096%=      5-min Rain = 0
KHRS 150015Z 19016KT 01/00 A3011 RMK A01 T00080001  RH  096%=      5-min Rain = 0
KHRS 150020Z 19016G21KT 01/00 A3011 RMK A01 T00090001  RH  096%=      5-min Rain = 0
KHRS 150025Z 19015KT 01/00 A3011 RMK A01 T00090001  RH  096%=      5-min Rain = 0
KHRS 150030Z 19014G20KT 01/00 A3011 RMK A01 T00090001  RH  096%=      5-min Rain = 0
KHRS 150035Z 19013KT 01/00 A3011 RMK A01 T00080001  RH  096%=      5-min Rain = 0
KHRS 150040Z 19013G18KT 01/00 A3011 RMK A01 T00080001  RH  096%=      5-min Rain = 0
KHRS 150045Z 19013G18KT 01/00 A3011 RMK A01 T00080001  RH  096%=      5-min Rain = 0
KHRS 150050Z 19014KT 01/00 A3011 RMK A01 T00080001  RH  096%=      5-min Rain = 0
KHRS 150055Z 19012G18KT 01/00 A3011 RMK A01 T00080001  RH  097%=      5-min Rain = 0
KHRS 150100Z 18015G20KT 01/00 A3012 RMK A01 T00070001  RH  097%=      5-min Rain = 0
KHRS 150105Z 18013G19KT 01/00 A3012 RMK A01 T00070001  RH  097%=      5-min Rain = 0
KHRS 150110Z 18013G18KT 01/00 A3012 RMK A01 T00070001  RH  097%=      5-min Rain = 0
KHRS 150115Z 18013G21KT 01/00 A3012 RMK A01 T00070001  RH  097%=      5-min Rain = 0
KHRS 150120Z 19015G20KT 01/00 A3012 RMK A01 T00070001  RH  097%=      5-min Rain = 0
KHRS 150125Z 18014G20KT 01/00 A3012 RMK A01 T00070001  RH  097%=      5-min Rain = 0
KHRS 150130Z 18014G20KT 01/00 A3012 RMK A01 T00070001  RH  097%=      5-min Rain = 0
KHRS 150135Z 18014G19KT 01/00 A3012 RMK A01 T00070001  RH  097%=      5-min Rain = 0
KHRS 150140Z 18013G20KT 01/00 A3012 RMK A01 T00070001  RH  097%=      5-min Rain = 0
KHRS 150145Z 18014G22KT 01/00 A3012 RMK A01 T00060001  RH  097%=      5-min Rain = 0
KHRS 150150Z 19014G20KT 01/00 A3012 RMK A01 T00060001  RH  097%=      5-min Rain = 0
KHRS 150155Z 18012KT 01/00 A3012 RMK A01 T00070001  RH  097%=      5-min Rain = 0
KHRS 150200Z 18011G16KT 01/00 A3012 RMK A01 T00060001  RH  097%=      5-min Rain = 0
KHRS 150205Z 19013KT 01/00 A3012 RMK A01 T00060001  RH  097%=      5-min Rain = 0
KHRS 150210Z 19015G20KT 01/00 A3012 RMK A01 T00060001  RH  098%=      5-min Rain = 0
KHRS 150215Z 19014G19KT 01/00 A3012 RMK A01 T00050000  RH  098%=      5-min Rain = 0
KHRS 150220Z 20016KT 00/00 A3012 RMK A01 T00040000  RH  098%=      5-min Rain = 0
KHRS 150225Z 20015G20KT 00/M00 A3012 RMK A01 T00031001  RH  098%=      5-min Rain = 0
KHRS 150230Z 19014KT 00/M00 A3012 RMK A01 T00031001  RH  098%=      5-min Rain = 0
KHRS 150235Z 19012KT 00/M00 A3012 RMK A01 T00031001  RH  099%=      5-min Rain = 0
KHRS 150240Z 19011KT 00/00 A3012 RMK A01 T00040000  RH  099%=      5-min Rain = 0
KHRS 150245Z 20012G17KT 00/00 A3012 RMK A01 T00040001  RH  099%=      5-min Rain = 0
KHRS 150250Z 20014G20KT 00/00 A3012 RMK A01 T00040001  RH  099%=      5-min Rain = 0
KHRS 150255Z 20013G18KT 00/00 A3012 RMK A01 T000300-0  RH  099%=      5-min Rain = 0
KHRS 150300Z 20013KT 00/M00 A3012 RMK A01 T00021001  RH  099%=      5-min Rain = 0
KHRS 150305Z 20013KT 00/M00 A3011 RMK A01 T00011002  RH  099%=      5-min Rain = 0
KHRS 150310Z 20013KT M00/M00 A3012 RMK A01 T10011003  RH  099%=      5-min Rain = 0
KHRS 150315Z 20013KT M00/M00 A3011 RMK A01 T10021004  RH  100%=      5-min Rain = 0
KHRS 150320Z 20013KT M00/M00 A3011 RMK A01 T10021004  RH  100%=      5-min Rain = 0
KHRS 150325Z 20011KT M00/M01 A3012 RMK A01 T10031005  RH  100%=      5-min Rain = 0
KHRS 150330Z 20010KT M00/M01 A3012 RMK A01 T10041006  RH  100%=      5-min Rain = 0
KHRS 150335Z 20010KT M01/M01 A3012 RMK A01 T10051006  RH  100%=      5-min Rain = 0
KHRS 150340Z 20009KT M01/M01 A3012 RMK A01 T10051007  RH  100%=      5-min Rain = 0
KHRS 150345Z 21009KT M01/M01 A3012 RMK A01 T10051007  RH  100%=      5-min Rain = 0
KHRS 150350Z 20009KT M01/M01 A3011 RMK A01 T10071008  RH  100%=      5-min Rain = 0
KHRS 150355Z 20008KT M01/M01 A3011 RMK A01 T10081009  RH  100%=      5-min Rain = 0
KHRS 150400Z 21008KT M01/M01 A3011 RMK A01 T10071008  RH  100%=      5-min Rain = 0
KHRS 150405Z 21009KT M01/M01 A3011 RMK A01 T10051007  RH  100%=      5-min Rain = 0
KHRS 150410Z 21009KT M01/M01 A3011 RMK A01 T10061007  RH  100%=      5-min Rain = 0
KHRS 150415Z 21009KT M01/M01 A3011 RMK A01 T10061007  RH  100%=      5-min Rain = 0
KHRS 150420Z 21009KT M01/M01 A3011 RMK A01 T10051006  RH  100%=      5-min Rain = 0
KHRS 150425Z 21009KT M01/M01 A3011 RMK A01 T10061007  RH  100%=      5-min Rain = 0
KHRS 150430Z 21010KT M01/M01 A301 RMK A01 T10061008  RH  100%=      5-min Rain = 0
KHRS 150435Z 21010KT M01/M01 A301 RMK A01 T10061007  RH  100%=      5-min Rain = 0
KHRS 150440Z 21009KT M01/M01 A301 RMK A01 T10051006  RH  100%=      5-min Rain = 0
KHRS 150445Z 21010KT M01/M01 A301 RMK A01 T10051006  RH  100%=      5-min Rain = 0
KHRS 150450Z 21010KT M01/M01 A301 RMK A01 T10051006  RH  100%=      5-min Rain = 0
KHRS 150455Z 21010KT M00/M01 A301 RMK A01 T10041006  RH  100%=      5-min Rain = 0
KHRS 150500Z 20010KT M00/M01 A301 RMK A01 T10041005  RH  100%=      5-min Rain = 0
KHRS 150505Z 20010KT M00/M01 A301 RMK A01 T10041006  RH  100%=      5-min Rain = 0
KHRS 150510Z 20010KT M00/M01 A3009 RMK A01 T10041006  RH  100%=      5-min Rain = 0
KHRS 150515Z 20010KT M00/M01 A3009 RMK A01 T10041006  RH  100%=      5-min Rain = 0
KHRS 150520Z 20010KT M00/M01 A3009 RMK A01 T10041006  RH  100%=      5-min Rain = 0
KHRS 150525Z 21010KT M00/M00 A3009 RMK A01 T10031004  RH  100%=      5-min Rain = 0
KHRS 150530Z 22009KT M00/M00 A3009 RMK A01 T10031004  RH  100%=      5-min Rain = 0
KHRS 150535Z 22007KT M00/M01 A3009 RMK A01 T10041006  RH  100%=      5-min Rain = 0
KHRS 150540Z 22007KT M01/M01 A3009 RMK A01 T10061007  RH  100%=      5-min Rain = 0
KHRS 150545Z 22007KT M01/M01 A3009 RMK A01 T10061008  RH  100%=      5-min Rain = 0
KHRS 150550Z 22008KT M01/M01 A3009 RMK A01 T10051007  RH  100%=      5-min Rain = 0
KHRS 150555Z 21010KT M00/M00 A3009 RMK A01 T10031004  RH  100%=      5-min Rain = 0

Page generated in 0.025 seconds.